Terminal Aerodrome Forecast
Issued by NWS Sioux Falls, SD

Home | Current Version | Previous Version | Text Only | Print | Product List | Glossary On
Versions: 1 2 3 4 5 6 7 8 9 10 11 12 13 14
000
FTUS43 KFSD 170535
TAFHON
TAF
KHON 170535Z 1706/1806 32005KT P6SM SKC
     FM171000 29004KT 5SM BR SKC
     FM171200 VRB03KT P6SM FEW120
     FM172200 18006KT P6SM FEW250=

USA.gov is the U.S. government's official web portal to all federal, state and local government web resources and services.